createdAt,value
2018-07-28T00:02:15.505Z,21.10
2018-07-28T00:04:42.869Z,21.20
2018-07-28T00:07:10.361Z,21.40
2018-07-28T00:09:37.685Z,21.40
2018-07-28T00:12:05.162Z,21.40
2018-07-28T00:14:32.520Z,21.40
2018-07-28T00:16:59.883Z,21.40
2018-07-28T00:19:27.258Z,21.30
2018-07-28T00:21:54.603Z,21.20
2018-07-28T00:24:21.948Z,21.10
2018-07-28T00:26:49.254Z,21.20
2018-07-28T00:29:16.635Z,21.40
2018-07-28T00:31:43.986Z,21.40
2018-07-28T00:34:11.334Z,21.30
2018-07-28T00:36:38.644Z,21.10
2018-07-28T00:39:08.165Z,21.00
2018-07-28T00:41:35.563Z,21.00
2018-07-28T00:44:03.075Z,21.00
2018-07-28T00:46:30.405Z,21.00
2018-07-28T00:48:57.744Z,21.10
2018-07-28T00:51:25.081Z,21.00
2018-07-28T00:53:52.397Z,20.90
2018-07-28T00:56:19.853Z,21.00
2018-07-28T00:58:47.134Z,21.00
2018-07-28T01:01:14.542Z,21.10
2018-07-28T01:03:42.000Z,21.10
2018-07-28T01:08:36.660Z,20.90
2018-07-28T01:11:04.034Z,20.60
2018-07-28T01:13:31.402Z,20.50
2018-07-28T01:15:58.793Z,20.60
2018-07-28T01:18:26.137Z,20.70
2018-07-28T01:20:53.465Z,20.90
2018-07-28T01:23:20.875Z,20.90
2018-07-28T01:25:48.208Z,20.80
2018-07-28T01:30:43.047Z,20.60
2018-07-28T01:35:37.715Z,20.60
2018-07-28T01:38:05.053Z,20.50
2018-07-28T01:40:32.386Z,20.50
2018-07-28T01:42:59.717Z,20.50
2018-07-28T01:45:27.037Z,20.50
2018-07-28T01:47:54.298Z,20.50
2018-07-28T01:50:21.556Z,20.40
2018-07-28T01:52:48.812Z,20.30
2018-07-28T01:55:16.106Z,20.30
2018-07-28T01:57:43.364Z,20.40
2018-07-28T02:00:10.601Z,20.20
2018-07-28T02:02:37.857Z,20.20
2018-07-28T02:05:06.316Z,20.20
2018-07-28T02:07:33.593Z,20.20
2018-07-28T02:10:00.943Z,20.00
2018-07-28T02:14:55.484Z,19.90
2018-07-28T02:17:22.774Z,20.00
2018-07-28T02:19:50.012Z,20.00
2018-07-28T02:22:17.268Z,20.00
2018-07-28T02:24:44.561Z,19.80
2018-07-28T02:27:11.955Z,19.60
2018-07-28T02:29:39.294Z,19.60
2018-07-28T02:32:06.572Z,19.70
2018-07-28T02:34:33.897Z,19.80
2018-07-28T02:37:01.168Z,19.90
2018-07-28T02:39:28.405Z,19.90
2018-07-28T02:41:55.700Z,19.80
2018-07-28T02:44:22.959Z,19.90
2018-07-28T02:49:18.484Z,19.70
2018-07-28T02:51:45.775Z,19.60
2018-07-28T02:56:40.332Z,19.50
2018-07-28T02:59:07.651Z,19.50
2018-07-28T03:01:34.951Z,19.60
2018-07-28T03:04:02.310Z,19.60
2018-07-28T03:06:29.577Z,19.60
2018-07-28T03:13:51.429Z,19.20
2018-07-28T03:16:19.908Z,19.20
2018-07-28T03:18:47.190Z,19.20
2018-07-28T03:21:14.494Z,19.30
2018-07-28T03:23:41.802Z,19.30
2018-07-28T03:26:09.147Z,19.30
2018-07-28T03:28:36.447Z,19.30
2018-07-28T03:31:03.789Z,19.30
2018-07-28T03:33:31.114Z,19.30
2018-07-28T03:35:58.396Z,19.30
2018-07-28T03:40:54.944Z,19.20
2018-07-28T03:43:22.269Z,19.10
2018-07-28T03:45:49.621Z,19.10
2018-07-28T03:48:16.888Z,19.10
2018-07-28T03:50:44.276Z,18.80
2018-07-28T03:53:11.646Z,18.70
2018-07-28T03:55:38.937Z,18.70
2018-07-28T03:58:06.249Z,18.70
2018-07-28T04:03:00.849Z,18.90
2018-07-28T04:05:28.140Z,18.90
2018-07-28T04:10:22.833Z,19.00
2018-07-28T04:12:50.215Z,18.80
2018-07-28T04:15:17.681Z,18.80
2018-07-28T04:17:51.895Z,18.30
2018-07-28T04:20:19.413Z,18.00
2018-07-28T04:25:13.993Z,18.40
2018-07-28T04:27:41.342Z,18.70
2018-07-28T04:30:14.849Z,18.60
2018-07-28T04:32:42.096Z,18.50
2018-07-28T04:37:37.764Z,18.80
2018-07-28T04:40:05.980Z,19.00
2018-07-28T04:42:33.300Z,19.10
2018-07-28T04:47:29.048Z,19.20
2018-07-28T04:49:56.330Z,19.30
2018-07-28T04:52:23.672Z,19.30
2018-07-28T04:54:50.957Z,19.40
2018-07-28T04:59:46.500Z,22.40
2018-07-28T05:02:13.997Z,23.60
2018-07-28T05:07:08.764Z,24.60
2018-07-28T05:09:36.017Z,24.00
2018-07-28T05:12:03.417Z,25.70
2018-07-28T05:14:30.705Z,26.10
2018-07-28T05:16:57.948Z,25.40
2018-07-28T05:19:25.411Z,24.60
2018-07-28T05:21:52.664Z,24.30
2018-07-28T05:24:20.066Z,24.10
2018-07-28T05:26:47.323Z,23.90
2018-07-28T05:29:14.613Z,23.70
2018-07-28T05:31:41.906Z,23.40
2018-07-28T05:34:09.210Z,23.20
2018-07-28T05:36:36.493Z,22.90
2018-07-28T05:39:07.690Z,22.90
2018-07-28T05:41:34.972Z,22.90
2018-07-28T05:44:02.269Z,22.90
2018-07-28T05:46:29.628Z,22.80
2018-07-28T05:48:56.968Z,22.90
2018-07-28T05:51:24.258Z,22.90
2018-07-28T05:53:51.609Z,22.90
2018-07-28T05:56:18.881Z,22.80
2018-07-28T05:58:46.192Z,22.70
2018-07-28T06:01:13.530Z,22.80
2018-07-28T06:03:40.842Z,22.70
2018-07-28T06:06:09.116Z,22.70
2018-07-28T06:08:36.423Z,22.70
2018-07-28T06:11:04.000Z,22.80
2018-07-28T06:13:31.357Z,22.80
2018-07-28T06:15:58.663Z,22.80
2018-07-28T06:18:25.925Z,22.90
2018-07-28T06:20:55.362Z,22.90
2018-07-28T06:23:22.741Z,23.00
2018-07-28T06:25:50.207Z,23.00
2018-07-28T06:28:17.546Z,23.10
2018-07-28T06:30:44.914Z,23.20
2018-07-28T06:33:12.209Z,23.30
2018-07-28T06:35:39.531Z,23.20
2018-07-28T06:38:06.946Z,23.30
2018-07-28T06:40:34.432Z,23.30
2018-07-28T06:45:29.766Z,23.20
2018-07-28T06:47:57.414Z,23.20
2018-07-28T06:50:24.749Z,23.30
2018-07-28T06:52:52.062Z,23.40
2018-07-28T06:55:19.377Z,23.50
2018-07-28T06:57:46.697Z,23.60
2018-07-28T07:00:14.063Z,23.70
2018-07-28T07:02:41.530Z,23.80
2018-07-28T07:05:09.149Z,23.90
2018-07-28T07:07:36.484Z,24.00
2018-07-28T07:10:04.372Z,24.10
2018-07-28T07:14:59.045Z,24.30
2018-07-28T07:17:26.466Z,24.40
2018-07-28T07:19:53.770Z,24.50
2018-07-28T07:22:23.036Z,24.60
2018-07-28T07:24:50.636Z,24.70
2018-07-28T07:27:18.142Z,24.80
2018-07-28T07:29:45.592Z,24.80
2018-07-28T07:32:12.937Z,24.80
2018-07-28T07:37:07.765Z,24.70
2018-07-28T07:39:37.114Z,24.80
2018-07-28T07:42:04.405Z,24.80
2018-07-28T07:44:31.716Z,24.90
2018-07-28T07:46:59.091Z,25.00
2018-07-28T07:49:26.659Z,25.10
2018-07-28T07:51:54.065Z,25.10
2018-07-28T07:54:21.431Z,25.10
2018-07-28T07:56:49.474Z,25.20
2018-07-28T07:59:16.945Z,25.20
2018-07-28T08:09:07.790Z,25.10
2018-07-28T08:11:35.214Z,25.10
2018-07-28T08:16:29.746Z,25.10
2018-07-28T08:18:57.117Z,25.20
2018-07-28T08:21:24.602Z,25.20
2018-07-28T08:26:19.505Z,25.20
2018-07-28T08:28:46.826Z,25.20
2018-07-28T08:31:14.133Z,25.20
2018-07-28T08:33:41.463Z,25.30
2018-07-28T08:36:08.849Z,25.40
2018-07-28T08:38:36.205Z,25.50
2018-07-28T08:41:03.617Z,25.60
2018-07-28T08:43:31.033Z,25.60
2018-07-28T08:45:58.312Z,25.70
2018-07-28T08:48:25.656Z,25.80
2018-07-28T08:50:52.944Z,25.90
2018-07-28T08:53:20.222Z,25.90
2018-07-28T08:55:47.593Z,26.10
2018-07-28T08:58:14.824Z,26.10
2018-07-28T09:00:42.159Z,26.10
2018-07-28T09:03:09.441Z,26.10
2018-07-28T09:10:31.607Z,26.40
2018-07-28T09:12:58.893Z,26.40
2018-07-28T09:15:26.259Z,26.40
2018-07-28T09:17:53.710Z,26.40
2018-07-28T09:20:20.980Z,26.40
2018-07-28T09:22:48.293Z,26.40
2018-07-28T09:25:16.220Z,26.50
2018-07-28T09:27:43.600Z,26.60
2018-07-28T09:30:10.946Z,26.60
2018-07-28T09:32:38.224Z,26.60
2018-07-28T09:35:05.554Z,26.60
2018-07-28T09:37:32.826Z,26.70
2018-07-28T09:40:00.082Z,26.70
2018-07-28T09:42:27.428Z,26.80
2018-07-28T09:44:55.017Z,26.80
2018-07-28T09:47:22.574Z,26.80
2018-07-28T09:49:49.885Z,26.90
2018-07-28T09:52:17.219Z,27.00
2018-07-28T09:54:44.513Z,27.10
2018-07-28T09:57:11.881Z,27.10
2018-07-28T09:59:39.233Z,27.20
2018-07-28T10:02:07.009Z,27.20
2018-07-28T10:04:34.325Z,27.20
2018-07-28T10:07:01.573Z,27.20
2018-07-28T10:09:28.910Z,27.30
2018-07-28T10:11:56.319Z,27.40
2018-07-28T10:14:23.801Z,27.50
2018-07-28T10:16:51.064Z,27.40
2018-07-28T10:19:19.450Z,27.40
2018-07-28T10:21:46.858Z,27.40
2018-07-28T10:24:14.442Z,27.70
2018-07-28T10:26:41.806Z,27.70
2018-07-28T10:29:09.276Z,27.90
2018-07-28T10:31:36.556Z,27.90
2018-07-28T10:34:04.913Z,28.00
2018-07-28T10:36:32.223Z,28.20
2018-07-28T10:38:59.436Z,28.20
2018-07-28T10:41:26.884Z,28.30
2018-07-28T10:43:54.139Z,28.40
2018-07-28T10:46:21.504Z,28.60
2018-07-28T10:48:50.591Z,28.70
2018-07-28T10:51:18.032Z,28.60
2018-07-28T10:53:45.392Z,28.60
2018-07-28T10:58:43.652Z,28.50
2018-07-28T11:01:11.122Z,28.40
2018-07-28T11:03:38.601Z,28.40
2018-07-28T11:06:06.606Z,28.40
2018-07-28T11:08:33.925Z,28.60
2018-07-28T11:11:01.448Z,28.50
2018-07-28T11:13:28.828Z,28.60
2018-07-28T11:16:02.078Z,28.70
2018-07-28T11:18:29.550Z,28.70
2018-07-28T11:20:56.962Z,28.80
2018-07-28T11:23:35.664Z,28.80
2018-07-28T11:26:03.077Z,28.90
2018-07-28T11:28:30.421Z,29.00
2018-07-28T11:30:57.782Z,29.10
2018-07-28T11:33:37.299Z,29.10
2018-07-28T11:36:16.280Z,29.10
2018-07-28T11:38:55.034Z,29.00
2018-07-28T11:41:33.929Z,28.90
2018-07-28T11:44:12.749Z,28.80
2018-07-28T11:46:40.134Z,28.90
2018-07-28T11:49:07.582Z,28.80
2018-07-28T11:51:35.029Z,28.80
2018-07-28T11:54:02.409Z,28.90
2018-07-28T11:56:30.908Z,28.90
2018-07-28T11:58:58.368Z,28.90
2018-07-28T12:03:53.343Z,29.10
2018-07-28T12:06:20.771Z,29.10
2018-07-28T12:08:48.137Z,29.20
2018-07-28T12:11:16.467Z,29.30
2018-07-28T12:13:43.901Z,29.30
2018-07-28T12:16:12.414Z,29.30
2018-07-28T12:18:39.855Z,29.30
2018-07-28T12:21:07.199Z,29.30
2018-07-28T12:23:36.617Z,29.20
2018-07-28T12:26:03.985Z,29.10
2018-07-28T12:28:34.597Z,29.10
2018-07-28T12:31:01.979Z,29.10
2018-07-28T12:33:29.436Z,29.20
2018-07-28T12:35:57.084Z,29.20
2018-07-28T12:38:24.453Z,29.30
2018-07-28T12:40:52.899Z,29.30
2018-07-28T12:43:20.291Z,29.30
2018-07-28T12:45:47.572Z,29.30
2018-07-28T12:50:43.344Z,29.20
2018-07-28T12:53:10.683Z,29.10
2018-07-28T12:55:38.065Z,29.00
2018-07-28T12:58:05.296Z,28.90
2018-07-28T13:00:32.569Z,28.80
2018-07-28T13:02:59.816Z,28.70
2018-07-28T13:05:27.558Z,28.70
2018-07-28T13:07:55.026Z,28.70
2018-07-28T13:10:22.404Z,28.80
2018-07-28T13:12:49.661Z,28.90
2018-07-28T13:15:16.926Z,29.00
2018-07-28T13:17:44.485Z,29.10
2018-07-28T13:22:39.928Z,29.20
2018-07-28T13:25:07.264Z,29.30
2018-07-28T13:27:34.526Z,29.30
2018-07-28T13:30:01.809Z,29.30
2018-07-28T13:32:29.070Z,29.30
2018-07-28T13:34:56.348Z,29.40
2018-07-28T13:37:23.625Z,29.40
2018-07-28T13:39:50.987Z,29.40
2018-07-28T13:44:45.788Z,29.40
2018-07-28T13:47:13.083Z,29.20
2018-07-28T13:49:40.468Z,29.20
2018-07-28T13:54:35.106Z,29.00
2018-07-28T13:57:02.409Z,29.00
2018-07-28T13:59:29.664Z,29.00
2018-07-28T14:01:57.189Z,29.10
2018-07-28T14:04:24.496Z,29.10
2018-07-28T14:06:51.773Z,29.10
2018-07-28T14:09:19.117Z,29.20
2018-07-28T14:11:46.470Z,29.20
2018-07-28T14:14:13.957Z,29.30
2018-07-28T14:16:41.365Z,29.30
2018-07-28T14:19:08.652Z,29.30
2018-07-28T14:21:36.007Z,29.30
2018-07-28T14:24:03.277Z,29.30
2018-07-28T14:26:30.708Z,29.40
2018-07-28T14:28:58.226Z,29.50
2018-07-28T14:31:25.637Z,29.50
2018-07-28T14:33:53.034Z,29.40
2018-07-28T14:36:20.517Z,29.40
2018-07-28T14:38:47.905Z,29.30
2018-07-28T14:41:15.188Z,29.40
2018-07-28T14:46:10.198Z,29.40
2018-07-28T14:48:37.457Z,29.50
2018-07-28T14:51:04.815Z,29.50
2018-07-28T14:53:32.160Z,29.60
2018-07-28T14:55:59.529Z,29.70
2018-07-28T14:58:26.924Z,29.70
2018-07-28T15:00:54.167Z,29.50
2018-07-28T15:03:21.718Z,29.40
2018-07-28T15:05:49.060Z,29.20
2018-07-28T15:08:16.297Z,29.00
2018-07-28T15:10:43.681Z,29.00
2018-07-28T15:13:11.028Z,29.00
2018-07-28T15:15:38.433Z,29.00
2018-07-28T15:18:05.789Z,28.90
2018-07-28T15:20:33.149Z,28.70
2018-07-28T15:23:00.458Z,28.60
2018-07-28T15:25:27.818Z,28.60
2018-07-28T15:30:22.653Z,28.70
2018-07-28T15:32:49.992Z,28.80
2018-07-28T15:35:17.288Z,28.70
2018-07-28T15:40:11.837Z,28.70
2018-07-28T15:42:39.092Z,28.70
2018-07-28T15:45:06.588Z,28.60
2018-07-28T15:47:34.183Z,28.50
2018-07-28T15:50:01.429Z,28.50
2018-07-28T15:52:28.797Z,28.50
2018-07-28T15:54:56.097Z,28.40
2018-07-28T15:57:23.356Z,28.40
2018-07-28T15:59:50.653Z,28.20
2018-07-28T16:04:45.344Z,28.20
2018-07-28T16:07:12.648Z,28.10
2018-07-28T16:12:08.098Z,28.00
2018-07-28T16:14:35.418Z,28.00
2018-07-28T16:17:02.848Z,28.00
2018-07-28T16:19:30.160Z,28.00
2018-07-28T16:21:57.453Z,28.00
2018-07-28T16:24:25.223Z,27.90
2018-07-28T16:26:52.566Z,27.90
2018-07-28T16:29:19.853Z,27.90
2018-07-28T16:31:47.179Z,27.70
2018-07-28T16:34:14.513Z,27.30
2018-07-28T16:39:10.125Z,26.60
2018-07-28T16:41:37.768Z,26.50
2018-07-28T16:44:05.130Z,26.40
2018-07-28T16:46:32.486Z,26.40
2018-07-28T16:48:59.897Z,26.20
2018-07-28T16:51:27.276Z,26.10
2018-07-28T16:53:54.545Z,26.20
2018-07-28T16:56:22.112Z,26.10
2018-07-28T16:58:50.096Z,26.10
2018-07-28T17:01:19.573Z,26.00
2018-07-28T17:03:46.967Z,26.10
2018-07-28T17:06:14.288Z,26.10
2018-07-28T17:11:09.007Z,25.90
2018-07-28T17:13:36.354Z,25.90
2018-07-28T17:16:03.869Z,25.80
2018-07-28T17:20:58.416Z,25.60
2018-07-28T17:23:26.314Z,25.50
2018-07-28T17:25:53.623Z,25.60
2018-07-28T17:28:20.989Z,25.40
2018-07-28T17:30:48.342Z,25.40
2018-07-28T17:33:15.580Z,25.40
2018-07-28T17:35:42.882Z,25.30
2018-07-28T17:38:10.128Z,25.30
2018-07-28T17:40:38.289Z,25.20
2018-07-28T17:43:05.599Z,25.20
2018-07-28T17:45:32.900Z,25.10
2018-07-28T17:48:00.257Z,25.20
2018-07-28T17:50:27.593Z,25.20
2018-07-28T17:52:55.022Z,25.10
2018-07-28T17:55:22.466Z,25.20
2018-07-28T18:00:18.401Z,25.20
2018-07-28T18:02:45.717Z,25.20
2018-07-28T18:05:13.060Z,25.40
2018-07-28T18:07:40.357Z,25.50
2018-07-28T18:10:07.595Z,25.50
2018-07-28T18:12:35.138Z,25.60
2018-07-28T18:15:02.401Z,25.60
2018-07-28T18:17:29.788Z,25.60
2018-07-28T18:19:57.060Z,25.60
2018-07-28T18:22:24.317Z,25.80
2018-07-28T18:24:51.623Z,25.80
2018-07-28T18:27:18.880Z,25.80
2018-07-28T18:32:13.441Z,25.90
2018-07-28T18:34:42.106Z,25.90
2018-07-28T18:37:09.512Z,25.90
2018-07-28T18:39:38.028Z,25.90
2018-07-28T18:42:05.470Z,25.80
2018-07-28T18:44:32.774Z,25.80
2018-07-28T18:47:00.025Z,25.80
2018-07-28T18:49:27.304Z,25.80
2018-07-28T18:51:54.576Z,25.80
2018-07-28T18:54:21.812Z,25.80
2018-07-28T18:56:50.268Z,25.70
2018-07-28T18:59:17.617Z,25.60
2018-07-28T19:06:39.689Z,25.50
2018-07-28T19:09:13.046Z,25.50
2018-07-28T19:11:40.593Z,25.50
2018-07-28T19:16:40.831Z,25.40
2018-07-28T19:19:14.538Z,25.20
2018-07-28T19:21:42.309Z,25.20
2018-07-28T19:24:09.549Z,25.10
2018-07-28T19:26:36.815Z,25.10
2018-07-28T19:29:09.876Z,25.10
2018-07-28T19:31:37.142Z,25.10
2018-07-28T19:34:04.536Z,24.90
2018-07-28T19:36:37.425Z,24.90
2018-07-28T19:41:38.867Z,24.90
2018-07-28T19:44:06.172Z,25.00
2018-07-28T19:46:34.548Z,24.90
2018-07-28T19:49:01.833Z,24.90
2018-07-28T19:51:29.244Z,24.90
2018-07-28T19:53:56.560Z,24.90
2018-07-28T19:56:24.564Z,24.80
2018-07-28T19:58:51.892Z,24.70
2018-07-28T20:01:19.185Z,24.60
2018-07-28T20:06:13.973Z,24.50
2018-07-28T20:08:41.269Z,24.40
2018-07-28T20:11:09.376Z,24.40
2018-07-28T20:16:04.016Z,24.30
2018-07-28T20:18:31.345Z,24.30
2018-07-28T20:20:58.691Z,24.10
2018-07-28T20:23:25.976Z,24.10
2018-07-28T20:25:53.266Z,24.10
2018-07-28T20:28:20.637Z,24.00
2018-07-28T20:30:48.008Z,24.00
2018-07-28T20:35:42.632Z,23.90
2018-07-28T20:38:09.981Z,23.90
2018-07-28T20:40:37.460Z,23.80
2018-07-28T20:43:04.889Z,23.80
2018-07-28T20:45:32.169Z,23.70
2018-07-28T20:47:59.464Z,23.70
2018-07-28T20:50:26.742Z,23.60
2018-07-28T20:55:21.316Z,23.60
2018-07-28T21:00:15.880Z,23.40
2018-07-28T21:02:43.230Z,23.40
2018-07-28T21:05:10.578Z,23.40
2018-07-28T21:07:37.921Z,23.40
2018-07-28T21:10:05.337Z,23.40
2018-07-28T21:12:32.573Z,23.40
2018-07-28T21:15:01.157Z,23.30
2018-07-28T21:17:28.341Z,23.30
2018-07-28T21:19:55.584Z,23.20
2018-07-28T21:22:22.829Z,23.20
2018-07-28T21:24:50.254Z,23.10
2018-07-28T21:27:17.548Z,23.00
2018-07-28T21:29:44.838Z,23.00
2018-07-28T21:34:39.473Z,23.10
2018-07-28T21:37:06.860Z,23.10
2018-07-28T21:39:34.208Z,23.00
2018-07-28T21:42:02.053Z,23.10
2018-07-28T21:44:29.332Z,23.10
2018-07-28T21:46:56.581Z,22.90
2018-07-28T21:49:23.901Z,22.90
2018-07-28T21:51:51.235Z,22.80
2018-07-28T21:54:18.674Z,22.70
2018-07-28T21:56:46.073Z,22.70
2018-07-28T21:59:13.320Z,22.60
2018-07-28T22:01:42.917Z,22.50
2018-07-28T22:04:16.182Z,22.50
2018-07-28T22:06:43.630Z,22.60
2018-07-28T22:09:10.872Z,22.50
2018-07-28T22:11:38.196Z,22.60
2018-07-28T22:14:05.586Z,22.50
2018-07-28T22:16:33.045Z,22.60
2018-07-28T22:19:00.597Z,22.50
2018-07-28T22:21:27.900Z,22.40
2018-07-28T22:23:55.245Z,22.40
2018-07-28T22:26:22.489Z,22.50
2018-07-28T22:28:49.851Z,22.40
2018-07-28T22:31:17.117Z,22.40
2018-07-28T22:33:44.364Z,22.40
2018-07-28T22:36:11.694Z,22.40
2018-07-28T22:38:38.944Z,22.40
2018-07-28T22:41:06.396Z,22.50
2018-07-28T22:43:33.648Z,22.50
2018-07-28T22:46:00.910Z,22.60
2018-07-28T22:50:55.468Z,22.40
2018-07-28T22:53:22.741Z,22.30
2018-07-28T22:55:49.988Z,22.30
2018-07-28T22:58:17.259Z,22.20
2018-07-28T23:00:44.598Z,22.20
2018-07-28T23:03:11.973Z,22.30
2018-07-28T23:08:06.540Z,22.30
2018-07-28T23:10:33.808Z,22.30
2018-07-28T23:13:01.091Z,22.30
2018-07-28T23:15:28.390Z,22.30
2018-07-28T23:17:55.680Z,22.40
2018-07-28T23:20:23.116Z,22.30
2018-07-28T23:22:50.434Z,22.30
2018-07-28T23:25:17.700Z,22.40
2018-07-28T23:27:44.970Z,22.40
2018-07-28T23:32:39.628Z,22.20
2018-07-28T23:35:07.173Z,22.10
2018-07-28T23:37:34.533Z,22.10
2018-07-28T23:40:01.929Z,22.10
2018-07-28T23:42:29.202Z,22.00
2018-07-28T23:44:56.547Z,22.00
2018-07-28T23:47:23.977Z,22.00
2018-07-28T23:52:18.494Z,21.90
2018-07-28T23:54:45.839Z,21.70
2018-07-28T23:57:13.180Z,21.60
2018-07-28T23:59:40.523Z,21.70
